Thursday, July 19, 2018, 1:31 PM EDT
Back to Local

KNAK, Annapolis Us Naval Academy

Location: Annapolis, MD, United States Lat: 38.983
Local Time: 1:31 PM EDT (17:31 GMT) Lon: -76.483
Time Zone: US/Eastern Elev: 6 ft

Show me the last for .
Show Decoded

2018-07-19 12:54 METAR KNAK 191654Z AUTO 08006KT 10SM CLR 28/12 A3010 RMK AO2 SLP195 T02830122 =
2018-07-19 11:54 METAR KNAK 191554Z AUTO 07007KT 10SM CLR 28/14 A3011 RMK AO2 SLP196 T02780144 =
2018-07-19 10:54 METAR KNAK 191454Z AUTO VRB06KT 10SM CLR 27/13 A3011 RMK AO2 SLP198 T02720133
                 51011 =
2018-07-19 09:54 METAR KNAK 191354Z AUTO 06007KT 10SM CLR 27/13 A3010 RMK AO2 SLP195 T02670133 =
2018-07-19 08:54 METAR KNAK 191254Z AUTO 04009KT 10SM CLR 26/16 A3009 RMK AO2 SLP193 T02560156 =
2018-07-19 07:54 METAR KNAK 191154Z AUTO 05006KT 10SM CLR 25/13 A3008 RMK AO2 SLP187 T02500133
                 10250 20233 53015 =
2018-07-19 06:54 METAR KNAK 191054Z AUTO 01004KT 10SM SCT075 24/16 A3006 RMK AO2 SLP181 T02440156
                 =
2018-07-19 05:54 METAR KNAK 190954Z AUTO 02003KT 10SM FEW080 23/16 A3005 RMK AO2 SLP176 T02330156
                 =
2018-07-19 04:54 METAR KNAK 190854Z AUTO 03004KT 10SM CLR 24/16 A3003 RMK AO2 SLP172 T02390161
                 51009 =
2018-07-19 03:54 METAR KNAK 190754Z AUTO 04006KT 10SM CLR 24/16 A3003 RMK AO2 SLP170 T02440161 =
2018-07-19 02:54 METAR KNAK 190654Z AUTO 03005KT 10SM CLR 25/16 A3002 RMK AO2 SLP166 T02500156 =
2018-07-19 01:54 METAR KNAK 190554Z AUTO 35004KT 10SM CLR 23/21 A3001 RMK AO2 SLP163 T02330206
                 10283 20228 53010 =
2018-07-19 00:54 METAR KNAK 190454Z AUTO 31003KT 10SM CLR 24/21 A2999 RMK AO2 SLP158 T02390211
                 403060233 =
2018-07-18 23:54 METAR KNAK 190354Z AUTO 32003KT 10SM CLR 24/22 A2998 RMK AO2 SLP154 T02440217 =
2018-07-18 22:54 METAR KNAK 190254Z AUTO 31003KT 10SM CLR 25/21 A2998 RMK AO2 SLP153 T02500206
                 51014 =
2018-07-18 21:54 METAR KNAK 190154Z AUTO 00000KT 10SM CLR 26/21 A2997 RMK AO2 SLP150 T02560206 =
2018-07-18 20:54 METAR KNAK 190054Z AUTO 00000KT 10SM SCT070 SCT080 27/20 A2995 RMK AO2 SLP144
                 T02670200 =
2018-07-18 19:54 METAR KNAK 182354Z AUTO 02003KT 10SM CLR 28/18 A2994 RMK AO2 SLP139 T02830178
                 10306 20283 53008 =
2018-07-18 18:54 METAR KNAK 182254Z AUTO VRB05KT 10SM CLR 30/16 A2992 RMK AO2 SLP135 T03000161 =
2018-07-18 17:54 METAR KNAK 182154Z AUTO 07005KT 10SM CLR 31/15 A2992 RMK AO2 SLP132 T03060150 =
2018-07-18 16:54 METAR KNAK 182054Z AUTO 06008KT 10SM CLR 31/14 A2992 RMK AO2 SLP132 T03060144
                 58005 =
2018-07-18 15:54 METAR KNAK 181954Z AUTO 04006KT 10SM CLR 30/15 A2993 RMK AO2 SLP136 T03000150 =
2018-07-18 14:54 METAR KNAK 181854Z AUTO 10SM FEW070 31/14 A2993 RMK AO2 SLP137 T03060144 =
2018-07-18 13:54 METAR KNAK 181754Z AUTO 36011G16KT 10SM CLR 29/13 A2993 RMK AO2 SLP137 T02940133
                 10300 20244 56007 =

Support USWX by starting your Amazon purchase here.